John R Operle — WDB8611 — position and weather

sailwx.info

Track history (hours):
 
Tides and Currents Weather Stations Pressure Air Temp Water Temp Dewpoint Dewpoint Depression Visibility Wind Speed Wind Dir Waves Ship Positions

John R Operle

More information available from US FCC via Universal Licensing System and Coast Guard Vessel Documentation Center.

Last reported at 2014-Apr-25 23:17 UTC. Time now 2014-Jul-26 13:12 UTC.
Position N 30°02' W 090°50'.
Warning: this ship's position is months out of date.

Length 56 m; draft 12.2 m.

Type: Tow > 200 m length. MMSI: 366961510.

Date/timePositionNaut miles runAvg speedWind from/ knotsBaromVisibWave heightAir tempDewpointWater temp
2014-Apr-25 23:17N 30°02' W 090°50'13 3.6
2014-Apr-25 19:33N 30°03' W 090°35'4 3.7
2014-Apr-25 18:33N 30°03' W 090°31'0 0.0
2014-Apr-25 17:33N 30°03' W 090°31'0 0.0
2014-Apr-25 16:33N 30°03' W 090°31'0 0.0
2014-Apr-25 15:33N 30°03' W 090°31'0 0.0
2014-Apr-25 14:33N 30°03' W 090°31'0 0.0
2014-Apr-25 13:33N 30°03' W 090°31'0 0.0
2014-Apr-25 12:33N 30°03' W 090°31'2 2.0
2014-Apr-25 11:33N 30°02' W 090°28'4 4.4
2014-Apr-25 10:33N 29°60' W 090°25'6 4.7
2014-Apr-25 09:19N 29°56' W 090°19'12 0.3
2014-Apr-23 18:03N 30°03' W 090°31'4 7.6
2014-Apr-23 17:33N 30°03' W 090°35'  
Track history (hours):
 
Tides and Currents Weather Stations Pressure Air Temp Water Temp Dewpoint Dewpoint Depression Visibility Wind Speed Wind Dir Waves Ship Positions

John R Operle

More information available from US FCC via Universal Licensing System and Coast Guard Vessel Documentation Center.

Last reported at 2014-Apr-25 23:17 UTC. Time now 2014-Jul-26 13:12 UTC.
Position N 30°02' W 090°50'.
Warning: this ship's position is months out of date.

Length 56 m; draft 12.2 m.

Type: Tow > 200 m length. MMSI: 366961510.

Date/timePositionNaut miles runAvg speedWind from/ knotsBaromVisibWave heightAir tempDewpointWater temp
2014-Apr-25 23:17N 30°02' W 090°50'13 3.6
2014-Apr-25 19:33N 30°03' W 090°35'4 3.7
2014-Apr-25 18:33N 30°03' W 090°31'0 0.0
2014-Apr-25 17:33N 30°03' W 090°31'0 0.0
2014-Apr-25 16:33N 30°03' W 090°31'0 0.0
2014-Apr-25 15:33N 30°03' W 090°31'0 0.0
2014-Apr-25 14:33N 30°03' W 090°31'0 0.0
2014-Apr-25 13:33N 30°03' W 090°31'0 0.0
2014-Apr-25 12:33N 30°03' W 090°31'2 2.0
2014-Apr-25 11:33N 30°02' W 090°28'4 4.4
2014-Apr-25 10:33N 29°60' W 090°25'6 4.7
2014-Apr-25 09:19N 29°56' W 090°19'12 0.3
2014-Apr-23 18:03N 30°03' W 090°31'4 7.6
2014-Apr-23 17:33N 30°03' W 090°35'  

Dump ship's entire track history